Main page
METAR-TAF:

METAR-TAF

Airports :

Chièvres, Belgium

Chièvres Air Base

latitude: 50-34N, longitude: 003-50E, elevation: 60 m

Current weather observation

The report was made 35 minutes ago, at 12:55 UTC
Wind 14 kt from the West
Temperature 12°C
Humidity 71%
Pressure 1014 hPa
Visibility 10 km or more

METAR: EBCV 221255Z AUTO 27014KT 9999 FEW043/// BKN140/// 12/07 Q1014 BLU

Time: 15:30 (13:30 UTC)

Forecast

The report was made 1 hour and 49 minutes ago, at 11:41 UTC
Forecast valid from 22 at 13 UTC to 22 at 22 UTC
Wind 13 kt from the West/Southwest
Visibility 10 km or more
Scattered clouds at a height of 2500 ft
Broken clouds at a height of 4000 ft
Temporary
from 22 at 13 UTC to 22 at 19 UTC
Wind 15 kt from the West/Southwest with gusts up to 25 kt
Visibility: 4000 m
Scattered clouds at a height of 1500 ft
Broken clouds at a height of 2500 ft
rain, rain showers

TAF: EBCV 221141Z 2213/2222 25013KT 9999 SCT025 BKN040 TEMPO 2213/2219 25015G25KT 4000 RA SHRA SCT015 BKN025 BY EBWM

Weather observations and forecasts of more than 4000 airports (METAR and TAF reports).

The available stations are represented by yellow and red dots on the map.

Hover mouse over dot to see the name of the station.

Then click to see weather observations and forecasts.

To change the map : click on the green buttons with a black cross to zoom in, on the green button with a dash to zoom out, or on the green arrows for adjacent maps.


METAR-TAF: